Time;durP1;ratioP1;P1;durP2;ratioP2;P2;SDS_P1;SDS_P2;PMS_P1;PMS_P2;Temp;Humidity;BMP_temperature;BMP_pressure;BME280_temperature;BME280_humidity;BME280_pressure;Samples;Min_cycle;Max_cycle;Signal;HPM_P1;HPM_P2
2021/01/16 00:01:51;;;;;;;33.33;12.90;;;;;;;-8.81;76.23;99801.08;1692867;85;21196;-81
2021/01/16 00:04:57;;;;;;;21.73;11.90;;;;;;;-8.80;76.36;99799.71;1692902;85;21283;-81
2021/01/16 00:08:16;;;;;;;29.45;13.03;;;;;;;-8.77;76.30;99797.38;1692912;85;21827;-81
2021/01/16 00:11:21;;;;;;;24.47;13.13;;;;;;;-8.78;76.12;99796.98;1692813;85;21244;-80
2021/01/16 00:14:27;;;;;;;29.00;13.28;;;;;;;-8.80;75.98;99791.76;1692951;85;21295;-81
2021/01/16 00:17:32;;;;;;;22.65;11.93;;;;;;;-8.79;75.85;99797.92;1692952;85;21339;-81
2021/01/16 00:20:42;;;;;;;27.32;12.43;;;;;;;-8.80;75.72;99795.73;1692892;85;21280;-80
2021/01/16 00:23:47;;;;;;;20.02;9.55;;;;;;;-8.82;75.68;99788.77;1693065;85;21275;-81
2021/01/16 00:26:53;;;;;;;28.30;13.22;;;;;;;-8.86;75.56;99797.30;1692927;85;21327;-81
2021/01/16 00:29:57;;;;;;;36.73;15.25;;;;;;;-8.88;75.84;99790.37;1692253;85;21952;-81
2021/01/16 00:33:04;;;;;;;27.58;12.15;;;;;;;-8.81;75.97;99793.13;1690724;85;21315;-81
2021/01/16 00:36:12;;;;;;;25.52;10.53;;;;;;;-8.77;76.06;99792.07;1690639;85;21255;-80
2021/01/16 00:39:17;;;;;;;22.93;11.65;;;;;;;-8.73;75.91;99794.98;1691891;85;21359;-81
2021/01/16 00:42:23;;;;;;;24.40;11.60;;;;;;;-8.78;75.47;99786.38;1690915;85;21382;-81
2021/01/16 00:45:29;;;;;;;27.50;12.25;;;;;;;-8.86;75.14;99782.73;1691949;85;21739;-81
2021/01/16 00:48:35;;;;;;;23.55;12.03;;;;;;;-8.92;75.27;99798.91;1690972;85;21251;-81
2021/01/16 00:51:40;;;;;;;24.15;11.15;;;;;;;-8.90;75.61;99796.18;1691990;85;21315;-81
2021/01/16 00:54:46;;;;;;;30.60;12.98;;;;;;;-8.85;75.78;99792.86;1691977;85;21362;-81
2021/01/16 00:57:51;;;;;;;25.95;13.62;;;;;;;-8.83;75.70;99796.33;1690691;85;21349;-81
2021/01/16 01:00:58;;;;;;;22.15;11.60;;;;;;;-8.85;75.65;99795.52;1691966;85;21330;-81
2021/01/16 01:04:02;;;;;;;27.17;13.50;;;;;;;-8.86;75.87;99789.82;1692872;85;21343;-81
2021/01/16 01:07:08;;;;;;;26.48;12.90;;;;;;;-8.88;75.92;99800.50;1692911;85;21807;-81
2021/01/16 01:10:18;;;;;;;26.42;12.90;;;;;;;-8.84;75.96;99810.52;1692938;85;21839;-81
2021/01/16 01:13:24;;;;;;;25.68;12.00;;;;;;;-8.84;75.97;99813.16;1693192;85;21330;-81
2021/01/16 01:16:29;;;;;;;25.40;11.95;;;;;;;-8.80;76.15;99813.41;1692923;85;21279;-81
2021/01/16 01:19:34;;;;;;;25.12;12.53;;;;;;;-8.77;76.16;99804.00;1692977;85;21350;-81
2021/01/16 01:22:44;;;;;;;30.72;13.43;;;;;;;-8.73;76.26;99806.92;1692918;85;21759;-81
2021/01/16 01:25:49;;;;;;;19.52;9.73;;;;;;;-8.70;76.27;99803.25;1692891;85;21763;-81
2021/01/16 01:28:54;;;;;;;21.60;11.55;;;;;;;-8.64;76.34;99806.52;1692982;85;21302;-81
2021/01/16 01:31:58;;;;;;;24.63;11.57;;;;;;;-8.61;76.15;99809.04;1690815;85;21219;-81
2021/01/16 01:35:03;;;;;;;26.25;13.13;;;;;;;-8.64;75.98;99815.80;1690579;85;21327;-81
2021/01/16 01:38:08;;;;;;;23.60;11.75;;;;;;;-8.69;75.78;99815.61;1690732;85;21274;-81
2021/01/16 01:41:12;;;;;;;18.37;9.70;;;;;;;-8.75;75.71;99820.69;1690692;85;21715;-81
2021/01/16 01:44:18;;;;;;;25.97;13.85;;;;;;;-8.80;75.87;99824.00;1690288;85;21226;-80
2021/01/16 01:47:25;;;;;;;23.38;12.47;;;;;;;-8.87;75.84;99827.87;1689692;85;21818;-82
2021/01/16 01:50:31;;;;;;;33.20;17.32;;;;;;;-8.96;76.14;99821.17;1690738;85;21806;-81
2021/01/16 01:53:38;;;;;;;27.13;12.68;;;;;;;-9.04;76.32;99827.25;1690715;85;21279;-81
2021/01/16 01:56:45;;;;;;;32.63;11.95;;;;;;;-9.12;76.40;99832.89;1689580;85;21338;-82
2021/01/16 01:59:51;;;;;;;26.10;12.80;;;;;;;-9.27;76.37;99842.34;1688582;85;22589;-82
2021/01/16 02:02:59;;;;;;;25.43;13.03;;;;;;;-9.40;76.26;99847.73;1689755;85;21799;-82
2021/01/16 02:06:05;;;;;;;24.52;12.98;;;;;;;-9.54;76.21;99844.33;1689765;85;21207;-81
2021/01/16 02:09:13;;;;;;;32.42;13.75;;;;;;;-9.63;76.32;99849.98;1689063;85;21235;-81
2021/01/16 02:12:19;;;;;;;32.42;15.43;;;;;;;-9.68;76.34;99851.95;1689674;85;21877;-81
2021/01/16 02:15:47;;;;;;;29.95;14.13;;;;;;;-9.69;76.47;99855.53;1688488;85;21766;-81
2021/01/16 02:18:47;;;;;;;19.73;10.27;;;;;;;-9.72;76.36;99857.43;1689688;85;21674;-81
2021/01/16 02:21:54;;;;;;;31.85;14.10;;;;;;;-9.74;76.50;99864.08;1688209;85;21259;-81
2021/01/16 02:25:09;;;;;;;28.27;12.93;;;;;;;-9.81;76.09;99869.23;1689665;85;21224;-81
2021/01/16 02:28:16;;;;;;;26.30;13.05;;;;;;;-9.92;75.78;99870.12;1689093;85;21347;-81
2021/01/16 02:31:22;;;;;;;29.25;13.53;;;;;;;-10.11;75.50;99868.63;1689693;85;21316;-81
2021/01/16 02:34:33;;;;;;;20.55;12.20;;;;;;;-10.20;75.58;99871.16;1690655;85;21759;-80
2021/01/16 02:37:48;;;;;;;21.68;10.95;;;;;;;-10.30;75.59;99868.48;1690578;85;21290;-81
2021/01/16 02:40:57;;;;;;;24.37;13.30;;;;;;;-10.37;75.66;99862.54;1690708;85;21796;-82
2021/01/16 02:44:22;;;;;;;27.52;12.23;;;;;;;-10.41;75.61;99862.70;1690754;85;21318;-81
2021/01/16 02:48:01;;;;;;;30.57;10.25;;;;;;;-10.44;75.47;99862.84;1689803;85;21362;-82
2021/01/16 02:51:06;;;;;;;24.80;12.13;;;;;;;-10.48;75.33;99871.80;1689728;85;21770;-82
2021/01/16 02:54:11;;;;;;;29.25;11.80;;;;;;;-10.60;74.91;99877.91;1689709;85;21184;-82
2021/01/16 02:57:18;;;;;;;25.80;12.55;;;;;;;-10.66;74.83;99883.41;1689576;85;21859;-82
2021/01/16 03:00:26;;;;;;;23.20;10.98;;;;;;;-10.76;74.62;99883.34;1690678;85;21208;-82
2021/01/16 03:03:33;;;;;;;27.87;13.18;;;;;;;-10.83;74.51;99889.73;1690688;85;21806;-82
2021/01/16 03:06:40;;;;;;;27.80;12.25;;;;;;;-10.93;74.48;99888.33;1690686;85;21291;-81
2021/01/16 03:09:46;;;;;;;25.72;12.85;;;;;;;-10.99;74.64;99893.37;1690531;85;21847;-82
2021/01/16 03:12:52;;;;;;;30.48;12.70;;;;;;;-10.99;74.74;99883.27;1690691;85;21284;-81
2021/01/16 03:15:58;;;;;;;30.48;13.00;;;;;;;-11.04;74.49;99888.70;1689889;85;21925;-81
2021/01/16 03:19:03;;;;;;;23.77;12.43;;;;;;;-11.12;74.13;99887.63;1689561;85;21770;-82
2021/01/16 03:22:16;;;;;;;22.65;10.15;;;;;;;-11.21;74.22;99890.56;1690662;85;21176;-82
2021/01/16 03:25:21;;;;;;;25.70;12.53;;;;;;;-11.23;74.17;99901.65;1690237;85;21362;-82
2021/01/16 03:28:27;;;;;;;27.98;9.55;;;;;;;-11.32;74.04;99899.77;1690609;85;21342;-81
2021/01/16 03:31:33;;;;;;;26.90;12.93;;;;;;;-11.43;73.71;99897.02;1688214;83;21327;-81
2021/01/16 03:34:39;;;;;;;29.67;13.75;;;;;;;-11.52;73.72;99888.53;1688322;85;21335;-81
2021/01/16 03:37:46;;;;;;;29.52;13.43;;;;;;;-11.59;73.73;99888.70;1688376;85;21344;-80
2021/01/16 03:40:51;;;;;;;39.25;15.60;;;;;;;-11.59;73.85;99891.34;1688775;85;21327;-80
2021/01/16 03:43:57;;;;;;;20.35;11.12;;;;;;;-11.57;73.91;99904.94;1689417;85;21830;-81
2021/01/16 03:47:03;;;;;;;22.25;10.68;;;;;;;-11.56;74.05;99903.59;1689784;85;21829;-80
2021/01/16 03:50:07;;;;;;;25.10;12.43;;;;;;;-11.45;74.41;99909.38;1689373;85;21354;-81
2021/01/16 03:53:16;;;;;;;23.70;11.48;;;;;;;-11.34;74.33;99899.79;1689687;85;21323;-81
2021/01/16 03:56:20;;;;;;;24.67;11.45;;;;;;;-11.27;74.01;99901.34;1689743;85;21854;-81
2021/01/16 03:59:26;;;;;;;23.00;10.98;;;;;;;-11.22;74.00;99904.69;1689398;85;21346;-81
2021/01/16 04:02:31;;;;;;;22.22;10.88;;;;;;;-11.12;74.16;99919.77;1689736;85;21318;-80
2021/01/16 04:05:37;;;;;;;18.82;10.03;;;;;;;-11.05;73.92;99933.63;1690737;85;21216;-80
2021/01/16 04:08:44;;;;;;;23.02;12.00;;;;;;;-11.01;74.04;99928.20;1690735;85;21279;-81
2021/01/16 04:11:50;;;;;;;22.42;11.35;;;;;;;-10.96;74.06;99930.27;1690692;85;21839;-80
2021/01/16 04:14:55;;;;;;;17.98;8.93;;;;;;;-10.90;74.25;99930.05;1690602;85;21326;-81
2021/01/16 04:18:02;;;;;;;22.42;11.38;;;;;;;-10.79;74.44;99933.64;1690710;85;21228;-80
2021/01/16 04:21:09;;;;;;;25.30;9.95;;;;;;;-10.71;74.18;99941.32;1689124;85;21172;-80
2021/01/16 04:24:15;;;;;;;34.05;11.48;;;;;;;-10.67;74.19;99939.84;1690695;85;21350;-81
2021/01/16 04:27:20;;;;;;;27.67;11.28;;;;;;;-10.64;73.96;99942.36;1690742;85;21172;-81
2021/01/16 04:30:26;;;;;;;26.23;10.30;;;;;;;-10.64;73.81;99939.72;1690477;85;21886;-80
2021/01/16 04:33:32;;;;;;;18.17;8.88;;;;;;;-10.66;73.69;99939.38;1690717;85;21299;-81
2021/01/16 04:36:37;;;;;;;27.67;12.85;;;;;;;-10.74;73.29;99945.38;1690732;85;21295;-81
2021/01/16 04:39:43;;;;;;;24.67;11.85;;;;;;;-10.81;73.49;99953.98;1690695;85;21283;-81
2021/01/16 04:42:52;;;;;;;21.70;11.45;;;;;;;-10.81;73.52;99956.63;1690701;85;21275;-81
2021/01/16 04:45:51;;;;;;;32.30;12.40;;;;;;;-10.86;73.52;99962.52;1690559;85;21322;-81
2021/01/16 04:49:09;;;;;;;23.15;11.15;;;;;;;-10.98;73.08;99951.88;1690740;85;21681;-81
2021/01/16 04:52:15;;;;;;;22.15;11.08;;;;;;;-11.09;73.39;99964.13;1690696;85;21311;-81
2021/01/16 04:55:21;;;;;;;25.17;11.95;;;;;;;-11.07;73.82;99964.93;1690727;85;21760;-80
2021/01/16 04:58:27;;;;;;;26.57;12.68;;;;;;;-11.04;73.88;99964.44;1690750;85;21172;-81
2021/01/16 05:01:34;;;;;;;27.10;11.55;;;;;;;-11.03;73.98;99963.52;1690708;85;21326;-81
2021/01/16 05:04:39;;;;;;;28.75;13.30;;;;;;;-11.01;73.97;99955.94;1690757;85;21283;-81
2021/01/16 05:07:48;;;;;;;20.27;11.18;;;;;;;-11.04;74.03;99952.09;1690726;85;21343;-81
2021/01/16 05:10:55;;;;;;;24.43;11.80;;;;;;;-11.00;74.21;99959.47;1690849;85;21212;-81
2021/01/16 05:14:22;;;;;;;25.40;11.05;;;;;;;-10.95;74.22;99973.39;1690678;85;21299;-80
2021/01/16 05:17:27;;;;;;;23.47;11.80;;;;;;;-10.95;74.21;99967.64;1690683;85;21172;-80
2021/01/16 05:20:32;;;;;;;18.45;10.10;;;;;;;-10.95;74.21;99956.22;1690696;85;21949;-81
2021/01/16 05:23:38;;;;;;;19.05;10.28;;;;;;;-10.89;74.25;99956.87;1674103;85;21220;-80
2021/01/16 05:26:45;;;;;;;30.20;11.78;;;;;;;-10.87;74.14;99962.09;1690706;85;21743;-81
2021/01/16 05:29:51;;;;;;;25.32;11.75;;;;;;;-10.90;74.20;99966.17;1690724;85;21326;-80
2021/01/16 05:32:56;;;;;;;25.35;12.60;;;;;;;-10.82;74.65;99964.13;1689379;85;21263;-81
2021/01/16 05:36:05;;;;;;;25.57;13.25;;;;;;;-10.70;74.71;99961.55;1691094;85;21204;-81
2021/01/16 05:39:10;;;;;;;20.08;8.68;;;;;;;-10.61;74.61;99962.09;1692970;85;21283;-80
2021/01/16 05:42:15;;;;;;;27.45;12.35;;;;;;;-10.52;74.50;99970.63;1653669;85;21228;-81
2021/01/16 05:45:21;;;;;;;24.05;11.90;;;;;;;-10.49;74.36;99974.05;1692951;85;21657;-82
2021/01/16 05:48:26;;;;;;;18.30;9.43;;;;;;;-10.44;74.19;99971.24;1692689;85;21764;-81
2021/01/16 05:51:31;;;;;;;26.25;12.93;;;;;;;-10.41;74.24;99981.69;1692850;85;21838;-80
2021/01/16 05:54:31;;;;;;;30.35;13.78;;;;;;;-10.39;74.03;99986.03;1692179;85;21338;-80
2021/01/16 05:57:36;;;;;;;29.07;13.13;;;;;;;-10.35;74.01;99984.11;1675385;85;21330;-80
2021/01/16 06:00:49;;;;;;;29.12;10.85;;;;;;;-10.35;73.65;99983.69;1672543;86;21327;-80
2021/01/16 06:04:01;;;;;;;22.52;11.78;;;;;;;-10.30;73.76;99986.17;1671344;86;21764;-80
2021/01/16 06:07:14;;;;;;;21.17;10.55;;;;;;;-10.23;73.75;99988.95;1666796;86;21776;-81
2021/01/16 06:10:22;;;;;;;27.52;12.28;;;;;;;-10.19;73.59;99989.26;1665301;86;21330;-80
2021/01/16 06:13:32;;;;;;;21.97;10.43;;;;;;;-10.15;73.44;99984.27;1643716;86;21796;-81
2021/01/16 06:16:38;;;;;;;28.60;11.63;;;;;;;-10.04;73.43;99985.20;1669272;86;21905;-80
2021/01/16 06:19:44;;;;;;;25.70;12.68;;;;;;;-9.97;73.29;99985.83;1648154;86;21348;-80
2021/01/16 06:22:52;;;;;;;19.23;10.72;;;;;;;-9.88;73.21;99989.03;1643969;86;21339;-81
2021/01/16 06:26:04;;;;;;;26.17;11.20;;;;;;;-9.81;73.07;99994.95;1674061;86;21189;-80
2021/01/16 06:29:10;;;;;;;22.65;10.28;;;;;;;-9.88;72.55;99985.49;1671902;86;21327;-80
2021/01/16 06:32:17;;;;;;;25.25;10.48;;;;;;;-9.94;72.53;100004.25;1668779;86;21330;-80
2021/01/16 06:35:24;;;;;;;19.40;10.25;;;;;;;-9.99;72.58;100007.06;1665743;86;21334;-80
2021/01/16 06:38:42;;;;;;;23.93;10.93;;;;;;;-9.92;72.98;100009.05;1660291;86;21878;-81
2021/01/16 06:41:49;;;;;;;25.68;12.35;;;;;;;-9.84;73.05;100005.17;1682561;85;21806;-80
2021/01/16 06:44:55;;;;;;;24.92;10.68;;;;;;;-9.71;72.97;99995.02;1690857;85;21807;-81
2021/01/16 06:48:04;;;;;;;20.88;11.80;;;;;;;-9.62;72.74;100003.94;1690527;85;21311;-81
2021/01/16 06:51:09;;;;;;;24.50;11.18;;;;;;;-9.50;73.14;99999.09;1689108;85;21845;-80
2021/01/16 06:54:15;;;;;;;27.27;12.40;;;;;;;-9.33;72.94;100006.80;1676839;85;21274;-80
2021/01/16 06:57:22;;;;;;;24.90;12.98;;;;;;;-9.18;73.19;100005.34;1691289;85;21282;-81
2021/01/16 07:00:30;;;;;;;27.32;12.03;;;;;;;-8.96;73.05;100005.38;1690516;85;21208;-80
2021/01/16 07:03:36;;;;;;;27.58;12.60;;;;;;;-8.78;72.76;100005.95;1688379;85;21284;-80
2021/01/16 07:06:55;;;;;;;23.52;11.53;;;;;;;-8.61;72.51;100002.63;1689275;85;21384;-80
2021/01/16 07:10:06;;;;;;;28.50;11.15;;;;;;;-8.42;72.12;100004.48;1689501;85;21214;-80
2021/01/16 07:13:12;;;;;;;29.63;13.50;;;;;;;-8.28;71.88;100006.06;1690341;85;21225;-81
2021/01/16 07:16:17;;;;;;;26.17;13.05;;;;;;;-8.10;71.93;100010.58;1691783;85;21286;-81
2021/01/16 07:19:27;;;;;;;31.82;13.22;;;;;;;-7.90;72.07;100016.37;1690560;85;21778;-81
2021/01/16 07:22:45;;;;;;;28.42;12.23;;;;;;;-7.75;71.30;100025.45;1689834;85;21785;-81
2021/01/16 07:25:48;;;;;;;25.55;12.73;;;;;;;-7.56;70.83;100028.15;1689682;85;21879;-80
2021/01/16 07:28:54;;;;;;;26.05;14.10;;;;;;;-7.44;70.08;100022.73;1689581;85;21365;-80
2021/01/16 07:31:59;;;;;;;32.63;14.68;;;;;;;-7.44;69.51;100009.45;1653070;85;21184;-80
2021/01/16 07:35:07;;;;;;;26.80;12.07;;;;;;;-7.44;69.53;100015.62;1679011;85;21210;-80
2021/01/16 07:38:13;;;;;;;26.80;13.05;;;;;;;-7.38;69.30;100011.84;1682730;85;21890;-81
2021/01/16 07:41:18;;;;;;;27.75;11.85;;;;;;;-7.42;68.90;100015.09;1683569;85;21323;-80
2021/01/16 07:44:26;;;;;;;25.55;13.65;;;;;;;-7.35;68.85;100027.63;1683295;85;21858;-80
2021/01/16 07:47:31;;;;;;;31.30;14.87;;;;;;;-7.37;68.54;100035.67;1683400;85;22193;-81
2021/01/16 07:50:39;;;;;;;24.18;12.18;;;;;;;-7.29;69.18;100033.54;1683370;85;21305;-80
2021/01/16 07:53:45;;;;;;;30.08;13.25;;;;;;;-7.05;69.31;100026.69;1683569;85;21329;-81
2021/01/16 07:56:51;;;;;;;22.35;11.63;;;;;;;-6.87;68.70;100032.91;1682788;85;21321;-80
2021/01/16 07:59:58;;;;;;;22.65;12.00;;;;;;;-6.82;68.26;100042.85;1683369;85;21318;-80
2021/01/16 08:03:19;;;;;;;19.42;10.78;;;;;;;-6.84;67.86;100047.39;1683321;85;21327;-80
2021/01/16 08:06:47;;;;;;;24.60;12.33;;;;;;;-6.83;67.93;100068.59;1683203;85;21323;-80
2021/01/16 08:10:01;;;;;;;24.95;12.20;;;;;;;-6.90;67.42;100058.33;1682001;85;21802;-80
2021/01/16 08:13:07;;;;;;;27.55;13.45;;;;;;;-7.02;67.28;100067.26;1684038;85;21352;-80
2021/01/16 08:16:14;;;;;;;25.57;11.12;;;;;;;-7.27;66.98;100052.92;1665048;85;21196;-80
2021/01/16 08:19:25;;;;;;;23.00;12.18;;;;;;;-7.51;67.11;100044.27;1659708;86;21791;-81
2021/01/16 08:22:30;;;;;;;24.23;12.98;;;;;;;-7.68;67.65;100046.80;1676816;83;21378;-81
2021/01/16 08:25:38;;;;;;;21.05;11.73;;;;;;;-7.76;68.18;100041.00;1687755;84;21861;-80
2021/01/16 08:28:45;;;;;;;17.87;11.20;;;;;;;-7.73;68.45;100040.84;1689686;85;21893;-80
2021/01/16 08:31:51;;;;;;;23.75;11.45;;;;;;;-7.78;68.36;100042.84;1677903;85;21239;-80
2021/01/16 08:35:08;;;;;;;22.60;11.15;;;;;;;-7.83;68.46;100039.52;1675300;84;21328;-80
2021/01/16 08:38:29;;;;;;;27.75;13.50;;;;;;;-7.78;68.90;100042.84;1684334;84;21314;-80
2021/01/16 08:41:37;;;;;;;21.82;11.97;;;;;;;-7.80;68.80;100034.95;1692827;85;21291;-81
2021/01/16 08:44:57;;;;;;;25.27;12.07;;;;;;;-7.82;68.95;100042.56;1692006;85;21244;-80
2021/01/16 08:48:07;;;;;;;20.95;11.55;;;;;;;-7.78;69.38;100037.06;1699347;84;21618;-81
2021/01/16 08:51:46;;;;;;;26.83;11.87;;;;;;;-7.68;69.37;100040.64;1700189;83;21323;-81
2021/01/16 08:55:11;;;;;;;16.82;9.38;;;;;;;-7.67;69.11;100030.41;1659777;84;21224;-81
2021/01/16 08:58:17;;;;;;;18.07;10.90;;;;;;;-7.61;69.35;100037.65;1698637;83;21172;-80
2021/01/16 09:01:22;;;;;;;17.00;9.70;;;;;;;-7.45;69.68;100035.16;1700069;84;21184;-80
2021/01/16 09:04:30;;;;;;;19.85;10.48;;;;;;;-7.23;69.69;100033.72;1699850;83;21829;-81
2021/01/16 09:07:35;;;;;;;20.85;11.48;;;;;;;-7.03;69.66;100024.80;1699986;83;21341;-81
2021/01/16 09:10:42;;;;;;;23.32;11.55;;;;;;;-6.89;69.39;100021.02;1679909;84;21171;-81
2021/01/16 09:13:50;;;;;;;21.80;11.80;;;;;;;-6.84;69.06;100017.66;1696750;84;21809;-80
2021/01/16 09:16:56;;;;;;;23.18;9.95;;;;;;;-6.85;68.47;100013.77;1699549;84;21811;-80
2021/01/16 09:20:04;;;;;;;15.58;8.88;;;;;;;-6.90;68.69;100015.31;1699698;84;21338;-81
2021/01/16 09:23:36;;;;;;;23.95;9.80;;;;;;;-6.85;68.75;100021.27;1699139;84;21851;-80
2021/01/16 09:26:41;;;;;;;19.57;11.33;;;;;;;-6.84;68.51;100007.03;1694367;84;21859;-80
2021/01/16 09:29:46;;;;;;;21.45;10.58;;;;;;;-6.91;68.03;100008.28;1653683;84;21164;-81
2021/01/16 09:32:53;;;;;;;17.55;9.43;;;;;;;-7.03;68.38;99998.22;1693493;84;21274;-81
2021/01/16 09:35:58;;;;;;;16.37;9.78;;;;;;;-7.01;68.98;99989.69;1694576;84;21702;-80
2021/01/16 09:39:03;;;;;;;15.28;9.05;;;;;;;-6.95;69.13;99996.06;1695264;84;21716;-80
2021/01/16 09:42:27;;;;;;;20.35;10.90;;;;;;;-6.90;69.12;99999.83;1693571;83;21818;-80
2021/01/16 09:45:34;;;;;;;19.98;12.18;;;;;;;-6.83;69.56;100003.42;1693864;84;21299;-81
2021/01/16 09:48:46;;;;;;;19.12;10.85;;;;;;;-6.70;69.71;99993.06;1655020;84;21335;-81
2021/01/16 09:51:51;;;;;;;19.85;11.63;;;;;;;-6.59;69.31;100002.69;1690833;84;21265;-80
2021/01/16 09:54:55;;;;;;;16.17;9.25;;;;;;;-6.62;69.16;100001.53;1680688;84;21294;-80
2021/01/16 09:58:01;;;;;;;17.17;9.80;;;;;;;-6.58;69.07;100008.91;1696920;83;21225;-81
2021/01/16 10:01:31;;;;;;;19.30;11.53;;;;;;;-6.59;69.18;100012.48;1700072;84;21289;-81
2021/01/16 10:04:37;;;;;;;20.92;10.78;;;;;;;-6.61;69.11;100013.03;1701069;83;21693;-80
2021/01/16 10:07:46;;;;;;;23.10;13.00;;;;;;;-6.65;69.09;100018.97;1699822;84;22169;-81
2021/01/16 10:10:53;;;;;;;22.53;12.00;;;;;;;-6.60;69.48;100018.27;1684245;84;21315;-80
2021/01/16 10:13:59;;;;;;;20.60;10.82;;;;;;;-6.46;69.32;100011.80;1693804;84;22076;-80
2021/01/16 10:17:04;;;;;;;18.87;10.25;;;;;;;-6.32;69.38;100008.92;1699851;83;21291;-81
2021/01/16 10:20:16;;;;;;;21.15;11.40;;;;;;;-6.19;69.08;100006.89;1657608;84;21361;-82
2021/01/16 10:23:23;;;;;;;23.15;10.78;;;;;;;-6.07;68.95;100006.75;1699042;83;21202;-82
2021/01/16 10:26:28;;;;;;;21.20;11.60;;;;;;;-5.92;68.59;100004.62;1693476;84;21279;-80
2021/01/16 10:29:45;;;;;;;21.10;11.20;;;;;;;-5.81;68.49;99996.03;1689097;84;21282;-81
2021/01/16 10:32:51;;;;;;;18.60;10.00;;;;;;;-5.61;68.17;99996.30;1684087;84;21329;-82
2021/01/16 10:36:13;;;;;;;18.95;9.68;;;;;;;-5.48;67.43;99986.70;1694351;83;21294;-81
2021/01/16 10:39:21;;;;;;;19.15;10.05;;;;;;;-5.33;66.86;99983.67;1692417;84;21346;-81
2021/01/16 10:42:28;;;;;;;16.82;8.23;;;;;;;-5.20;66.53;99983.87;1685402;84;21384;-81
2021/01/16 10:45:39;;;;;;;16.15;9.60;;;;;;;-5.04;65.85;99981.20;1673530;84;21329;-80
2021/01/16 10:48:45;;;;;;;19.00;9.18;;;;;;;-4.95;65.65;99983.35;1693906;84;21332;-81
2021/01/16 10:52:03;;;;;;;19.23;10.65;;;;;;;-4.74;65.30;99979.48;1700031;84;21321;-81
2021/01/16 10:55:13;;;;;;;18.40;9.75;;;;;;;-4.65;65.12;99978.10;1702253;84;21280;-81
2021/01/16 10:58:18;;;;;;;24.30;11.40;;;;;;;-4.53;64.66;99973.84;1701431;84;21253;-81
2021/01/16 11:01:24;;;;;;;17.40;9.33;;;;;;;-4.50;64.43;99975.02;1689662;84;21191;-80
2021/01/16 11:04:31;;;;;;;15.55;8.53;;;;;;;-4.47;64.18;99972.14;1677025;84;21358;-81
2021/01/16 11:07:37;;;;;;;15.60;8.90;;;;;;;-4.51;63.66;99956.80;1701666;84;21229;-81
2021/01/16 11:10:44;;;;;;;16.05;8.58;;;;;;;-4.57;63.63;99961.14;1699424;82;21346;-79
2021/01/16 11:13:53;;;;;;;19.92;10.15;;;;;;;-4.65;63.84;99960.75;1692741;84;21772;-80
2021/01/16 11:16:58;;;;;;;18.87;9.98;;;;;;;-4.71;63.72;99960.60;1701757;84;21231;-79
2021/01/16 11:20:04;;;;;;;16.37;8.98;;;;;;;-4.76;63.95;99964.02;1700668;84;21844;-79
2021/01/16 11:23:36;;;;;;;15.90;9.50;;;;;;;-4.84;63.94;99952.94;1699958;84;21286;-79
2021/01/16 11:26:54;;;;;;;17.05;8.95;;;;;;;-4.98;64.20;99957.73;1687838;84;21818;-79
2021/01/16 11:30:01;;;;;;;21.85;10.13;;;;;;;-5.14;64.50;99959.52;1698007;84;21263;-80
2021/01/16 11:33:06;;;;;;;15.13;8.90;;;;;;;-5.32;64.86;99961.87;1690397;85;21323;-79
2021/01/16 11:36:21;;;;;;;16.07;7.95;;;;;;;-5.44;65.39;99960.75;1673314;85;21222;-79
2021/01/16 11:39:52;;;;;;;14.75;8.15;;;;;;;-5.55;65.79;99962.67;1693212;85;21874;-79
2021/01/16 11:43:02;;;;;;;16.57;9.93;;;;;;;-5.62;66.32;99962.60;1684773;85;21808;-79
2021/01/16 11:46:18;;;;;;;14.80;8.58;;;;;;;-5.63;66.40;99962.22;1685732;85;21287;-79
2021/01/16 11:49:23;;;;;;;15.00;8.25;;;;;;;-5.62;66.73;99959.08;1682855;85;21250;-79
2021/01/16 11:52:29;;;;;;;18.40;8.50;;;;;;;-5.58;66.81;99960.16;1674308;85;21336;-79
2021/01/16 11:55:35;;;;;;;18.80;9.40;;;;;;;-5.57;66.86;99957.88;1683650;85;21288;-80
2021/01/16 11:58:43;;;;;;;15.93;8.78;;;;;;;-5.55;66.92;99958.68;1680620;85;21335;-79
2021/01/16 12:01:48;;;;;;;15.32;8.83;;;;;;;-5.57;67.08;99962.36;1679527;83;21276;-79
2021/01/16 12:04:55;;;;;;;13.43;8.18;;;;;;;-5.56;67.21;99966.26;1684498;85;21276;-79
2021/01/16 12:08:03;;;;;;;16.30;8.95;;;;;;;-5.54;67.30;99967.53;1685753;83;21286;-80
2021/01/16 12:11:08;;;;;;;16.60;8.97;;;;;;;-5.54;67.35;99964.86;1689237;84;21357;-80
2021/01/16 12:14:16;;;;;;;20.08;8.80;;;;;;;-5.53;67.35;99971.44;1687293;84;21815;-81
2021/01/16 12:17:22;;;;;;;16.35;8.85;;;;;;;-5.48;67.36;99975.19;1686211;83;21549;-81
2021/01/16 12:20:35;;;;;;;18.30;9.15;;;;;;;-5.44;66.99;99976.27;1688119;85;21265;-81
2021/01/16 12:23:53;;;;;;;21.73;9.25;;;;;;;-5.38;67.08;99980.40;1687671;85;21324;-80
2021/01/16 12:26:58;;;;;;;15.48;8.50;;;;;;;-5.27;66.85;99975.80;1673889;85;21303;-81
2021/01/16 12:30:03;;;;;;;18.20;9.68;;;;;;;-5.25;66.66;99972.59;1690339;84;21172;-80
2021/01/16 12:33:07;;;;;;;13.78;8.98;;;;;;;-5.30;66.64;99971.99;1689671;85;21263;-81
2021/01/16 12:36:17;;;;;;;17.80;10.68;;;;;;;-5.33;66.59;99981.48;1690164;85;21765;-81
2021/01/16 12:39:22;;;;;;;18.98;9.95;;;;;;;-5.41;66.73;99984.55;1690455;85;21367;-81
2021/01/16 12:42:28;;;;;;;21.35;10.10;;;;;;;-5.39;66.92;99981.34;1689895;83;21176;-80
2021/01/16 12:45:28;;;;;;;20.17;9.75;;;;;;;-5.37;66.90;99974.59;1696603;84;21695;-80
2021/01/16 12:48:36;;;;;;;16.97;10.38;;;;;;;-5.40;66.86;99979.64;1699629;84;21301;-81
2021/01/16 12:51:42;;;;;;;19.02;10.75;;;;;;;-5.45;66.97;99981.69;1699887;84;21178;-81
2021/01/16 12:54:48;;;;;;;25.23;11.12;;;;;;;-5.49;67.20;99982.80;1695639;84;21310;-81
2021/01/16 12:57:54;;;;;;;28.00;9.35;;;;;;;-5.49;67.48;99982.80;1692085;84;21206;-81
2021/01/16 13:03:38;;;;;;;24.80;9.58;;;;;;;-5.49;67.66;99984.13;1817440;76;28191;-81
2021/01/16 13:06:45;;;;;;;24.35;8.78;;;;;;;-5.55;67.81;99981.33;1765950;80;21784;-81
2021/01/16 13:09:51;;;;;;;20.75;9.23;;;;;;;-5.60;67.97;99990.02;1750637;82;21287;-81
2021/01/16 13:12:56;;;;;;;19.02;8.28;;;;;;;-5.72;68.15;99981.36;1706307;84;22039;-81
2021/01/16 13:16:07;;;;;;;19.57;7.87;;;;;;;-5.87;68.57;99982.18;1727408;81;21840;-82
2021/01/16 13:19:13;;;;;;;17.82;7.75;;;;;;;-5.97;69.02;99985.36;1732229;81;21787;-81
2021/01/16 13:22:28;;;;;;;15.45;7.90;;;;;;;-6.05;69.25;99985.36;1719975;81;21199;-82
2021/01/16 13:25:33;;;;;;;18.90;7.92;;;;;;;-6.14;69.50;99980.51;1726277;81;21345;-82
2021/01/16 13:28:39;;;;;;;13.28;7.20;;;;;;;-6.22;69.65;99978.23;1728469;81;21843;-81
2021/01/16 13:31:44;;;;;;;14.40;8.45;;;;;;;-6.29;69.81;99978.16;1754757;81;21808;-82
2021/01/16 13:34:51;;;;;;;10.68;6.80;;;;;;;-6.37;69.97;99976.36;1733800;82;21271;-82
2021/01/16 13:37:58;;;;;;;15.55;8.18;;;;;;;-6.41;70.18;99981.44;1731079;81;21239;-82
2021/01/16 13:41:08;;;;;;;15.38;7.80;;;;;;;-6.47;70.24;99980.81;1719352;82;21234;-81
2021/01/16 13:44:11;;;;;;;17.67;9.05;;;;;;;-6.52;70.44;99979.32;1750075;81;21346;-81
2021/01/16 13:47:23;;;;;;;19.42;8.60;;;;;;;-6.59;70.62;99980.08;1763670;81;21753;-81
2021/01/16 13:50:30;;;;;;;13.78;8.00;;;;;;;-6.69;70.84;99976.16;1738480;82;21168;-81
2021/01/16 13:53:36;;;;;;;19.32;9.65;;;;;;;-6.80;71.17;99978.02;1720672;82;21351;-81
2021/01/16 13:56:58;;;;;;;19.65;10.45;;;;;;;-6.81;71.42;99984.75;1721832;82;21848;-81
2021/01/16 14:00:04;;;;;;;27.82;10.43;;;;;;;-6.81;71.39;99980.30;1726566;82;21303;-81
2021/01/16 14:03:10;;;;;;;17.48;10.55;;;;;;;-6.78;71.33;99975.27;1749357;81;21296;-81
2021/01/16 14:06:16;;;;;;;21.00;10.15;;;;;;;-6.79;71.34;99974.89;1723343;82;21279;-80
2021/01/16 14:09:36;;;;;;;21.25;11.78;;;;;;;-6.73;71.39;99978.56;1701271;82;21279;-80
2021/01/16 14:12:41;;;;;;;20.32;12.47;;;;;;;-6.70;71.15;99969.12;1704485;82;21314;-81
2021/01/16 14:16:09;;;;;;;24.07;11.38;;;;;;;-6.75;71.11;99969.34;1690927;84;21798;-81
2021/01/16 14:19:21;;;;;;;22.50;11.75;;;;;;;-6.83;70.97;99977.30;1698220;84;21137;-81
2021/01/16 14:22:29;;;;;;;25.12;11.88;;;;;;;-6.89;71.09;99975.81;1698419;84;21339;-81
2021/01/16 14:25:39;;;;;;;22.75;10.80;;;;;;;-6.92;71.12;99977.27;1708214;84;21185;-81